Hlavní strana
METAR-TAF:

METAR-TAF

Letiště :

Vardø, Norsko

zeměpisná šířka: 70-21N, zeměpisná délka: 031-03E, výška: 12 m

Aktuální stav počasí

Zpráva byla vytvořena před 41 minutami, v 08:20 UTC
Jihozápadní vítr 31 kt
Teplota -9°C
Vlhkost vzduchu 85%
Tlak 1016 hPa
Viditelnost 10 km a více
Skoro jasno ve výšce 4900 ft
Oblačno až skoro zataženo ve výšce 8500 ft
nízko zvířený sníh

METAR: ENSS 060820Z 22031KT 9999 DRSN FEW049 BKN085 M09/M11 Q1016 RMK WIND 500FT 25043KT

Čas: 10:01 (09:01 UTC)


TAF: chybějící

Stav a předpovědi počasí z více než 4 000 letišť (zprávy METAR a TAF).

Červené a žluté tečky na mapě představují dostupné meteorologické stanice.

Když kurzor umístíte na tečku, zobrazí se název stanice.

Pak kliknutím zobrazíte stav a předpověď počasí.

Chcete-li změnit mapu, kliknutím na zelené tlačítko se znaménkem +mapu přiblížíte, kliknutím na zelené tlačítko se znaménkem – mapu oddálíte a kliknutím na zelené šipky přejdete na sousední mapy.


METAR-TAF: